Time;durP1;ratioP1;P1;durP2;ratioP2;P2;SDS_P1;SDS_P2;PMS_P1;PMS_P2;Temp;Humidity;BMP_temperature;BMP_pressure;BME280_temperature;BME280_humidity;BME280_pressure;Samples;Min_cycle;Max_cycle;Signal;HPM_P1;HPM_P2
2023/07/18 00:01:00;;;;;;;7.03;3.60;;;;;;;;;;4975949;28;20033;-73
2023/07/18 00:03:28;;;;;;;4.22;3.35;;;;;;;;;;4975771;28;20523;-73
2023/07/18 00:05:55;;;;;;;7.03;4.00;;;;;;;;;;4975643;28;20017;-72
2023/07/18 00:08:21;;;;;;;7.28;3.70;;;;;;;;;;4975832;28;20030;-72
2023/07/18 00:10:47;;;;;;;8.75;4.35;;;;;;;;;;4975230;28;20025;-73
2023/07/18 00:13:14;;;;;;;7.35;3.92;;;;;;;;;;4975370;28;20108;-72
2023/07/18 00:15:40;;;;;;;7.57;3.83;;;;;;;;;;4975266;28;20035;-73
2023/07/18 00:18:07;;;;;;;5.88;3.60;;;;;;;;;;4975327;28;20076;-73
2023/07/18 00:20:33;;;;;;;6.10;3.90;;;;;;;;;;4975353;28;20041;-73
2023/07/18 00:23:00;;;;;;;8.90;3.67;;;;;;;;;;4975189;28;20037;-73
2023/07/18 00:25:26;;;;;;;7.35;3.78;;;;;;;;;;4975219;28;20019;-73
2023/07/18 00:27:53;;;;;;;6.95;3.65;;;;;;;;;;4975392;28;20033;-73
2023/07/18 00:30:20;;;;;;;6.70;3.75;;;;;;;;;;4975079;28;20498;-73
2023/07/18 00:32:47;;;;;;;4.78;3.42;;;;;;;;;;4990026;28;20430;-73
2023/07/18 00:35:16;;;;;;;7.13;3.90;;;;;;;;;;4975262;28;20023;-73
2023/07/18 00:37:43;;;;;;;5.78;3.83;;;;;;;;;;4974938;28;20031;-73
2023/07/18 00:40:10;;;;;;;9.27;4.38;;;;;;;;;;4974922;28;20029;-73
2023/07/18 00:42:37;;;;;;;6.53;3.67;;;;;;;;;;4974992;28;20022;-73
2023/07/18 00:45:04;;;;;;;4.30;3.75;;;;;;;;;;4974836;28;20479;-73
2023/07/18 00:47:31;;;;;;;4.85;3.97;;;;;;;;;;4975291;28;20034;-72
2023/07/18 00:49:57;;;;;;;5.03;3.50;;;;;;;;;;4975208;28;20031;-72
2023/07/18 00:52:25;;;;;;;7.50;4.13;;;;;;;;;;4973046;28;20031;-72
2023/07/18 00:54:52;;;;;;;4.65;4.07;;;;;;;;;;4974803;28;20027;-73
2023/07/18 00:57:18;;;;;;;8.70;4.00;;;;;;;;;;4974593;28;20031;-72
2023/07/18 00:59:44;;;;;;;4.85;3.67;;;;;;;;;;4975049;28;20034;-73
2023/07/18 01:02:11;;;;;;;4.95;3.65;;;;;;;;;;4974684;28;20030;-73
2023/07/18 01:04:37;;;;;;;8.75;4.40;;;;;;;;;;4974783;28;20038;-73
2023/07/18 01:07:04;;;;;;;4.95;3.75;;;;;;;;;;4974250;28;20019;-73
2023/07/18 01:09:31;;;;;;;7.78;3.50;;;;;;;;;;4974536;28;20495;-72
2023/07/18 01:11:57;;;;;;;5.35;3.72;;;;;;;;;;4974693;28;20027;-72
2023/07/18 01:14:25;;;;;;;5.65;3.42;;;;;;;;;;4974545;28;20057;-73
2023/07/18 01:16:55;;;;;;;5.18;3.90;;;;;;;;;;4974130;28;20043;-72
2023/07/18 01:19:21;;;;;;;10.57;4.13;;;;;;;;;;4974241;28;20023;-72
2023/07/18 01:21:48;;;;;;;6.07;3.65;;;;;;;;;;4973922;28;20037;-73
2023/07/18 01:24:14;;;;;;;5.70;4.10;;;;;;;;;;4974319;28;20372;-72
2023/07/18 01:26:41;;;;;;;6.07;4.43;;;;;;;;;;4974280;28;20039;-73
2023/07/18 01:29:08;;;;;;;6.13;4.13;;;;;;;;;;4974240;28;20023;-72
2023/07/18 01:31:34;;;;;;;6.20;4.20;;;;;;;;;;4974075;28;20380;-72
2023/07/18 01:34:01;;;;;;;6.25;4.25;;;;;;;;;;4974231;28;20042;-72
2023/07/18 01:36:28;;;;;;;5.30;3.83;;;;;;;;;;4973692;28;20472;-72
2023/07/18 01:38:54;;;;;;;7.10;3.92;;;;;;;;;;4974250;28;20030;-72
2023/07/18 01:41:21;;;;;;;7.10;4.00;;;;;;;;;;4974190;28;20022;-72
2023/07/18 01:43:47;;;;;;;7.60;3.92;;;;;;;;;;4974094;28;20022;-72
2023/07/18 01:46:13;;;;;;;4.28;3.88;;;;;;;;;;4974035;28;20080;-72
2023/07/18 01:48:39;;;;;;;6.10;4.10;;;;;;;;;;4974148;28;20027;-72
2023/07/18 01:51:06;;;;;;;7.45;4.20;;;;;;;;;;4973758;28;20033;-72
2023/07/18 01:53:32;;;;;;;7.60;4.20;;;;;;;;;;4973774;28;20483;-72
2023/07/18 01:55:59;;;;;;;6.78;3.97;;;;;;;;;;4973988;28;20390;-72
2023/07/18 01:58:25;;;;;;;7.35;4.15;;;;;;;;;;4972558;28;20049;-72
2023/07/18 02:00:51;;;;;;;4.45;3.72;;;;;;;;;;4973791;28;20364;-72
2023/07/18 02:03:17;;;;;;;8.00;4.53;;;;;;;;;;4972856;28;20051;-72
2023/07/18 02:05:44;;;;;;;7.15;5.18;;;;;;;;;;4973344;28;20029;-73
2023/07/18 02:08:10;;;;;;;6.50;4.53;;;;;;;;;;4973654;28;20031;-72
2023/07/18 02:10:36;;;;;;;7.75;4.93;;;;;;;;;;4973532;28;20498;-72
2023/07/18 02:13:03;;;;;;;9.30;4.88;;;;;;;;;;4973632;28;20033;-72
2023/07/18 02:15:29;;;;;;;9.25;4.70;;;;;;;;;;4973739;28;20047;-72
2023/07/18 02:17:56;;;;;;;6.80;5.05;;;;;;;;;;4973323;28;20043;-73
2023/07/18 02:20:22;;;;;;;8.27;4.30;;;;;;;;;;4973193;28;20026;-72
2023/07/18 02:22:50;;;;;;;6.22;4.65;;;;;;;;;;4973703;28;20026;-72
2023/07/18 02:25:17;;;;;;;8.05;5.03;;;;;;;;;;4973791;28;20026;-72
2023/07/18 02:27:44;;;;;;;7.80;4.90;;;;;;;;;;4973620;28;20027;-72
2023/07/18 02:30:11;;;;;;;7.45;4.82;;;;;;;;;;4973527;28;20034;-72
2023/07/18 02:32:41;;;;;;;6.53;4.60;;;;;;;;;;4973449;28;20031;-73
2023/07/18 02:35:08;;;;;;;6.53;4.68;;;;;;;;;;4973084;28;20027;-72
2023/07/18 02:37:35;;;;;;;6.22;4.50;;;;;;;;;;4973367;28;20045;-72
2023/07/18 02:40:08;;;;;;;7.85;4.40;;;;;;;;;;4973442;28;20049;-72
2023/07/18 02:42:34;;;;;;;6.40;4.78;;;;;;;;;;4973421;28;20033;-72
2023/07/18 02:45:00;;;;;;;9.90;4.70;;;;;;;;;;4971986;28;20039;-72
2023/07/18 02:47:27;;;;;;;7.03;4.53;;;;;;;;;;4973444;28;20031;-72
2023/07/18 02:49:53;;;;;;;5.20;4.00;;;;;;;;;;4973145;28;20019;-72
2023/07/18 02:52:19;;;;;;;8.20;4.47;;;;;;;;;;4973317;28;20060;-72
2023/07/18 02:54:45;;;;;;;6.03;4.53;;;;;;;;;;4972859;28;20025;-72
2023/07/18 02:57:12;;;;;;;6.07;4.40;;;;;;;;;;4973219;28;20411;-72
2023/07/18 02:59:38;;;;;;;6.57;4.40;;;;;;;;;;4973389;28;20076;-72
2023/07/18 03:02:04;;;;;;;6.40;4.47;;;;;;;;;;4972133;28;20021;-72
2023/07/18 03:04:31;;;;;;;9.98;4.30;;;;;;;;;;4972879;28;20027;-72
2023/07/18 03:06:57;;;;;;;5.78;4.32;;;;;;;;;;4973057;28;20035;-72
2023/07/18 03:09:23;;;;;;;9.00;5.03;;;;;;;;;;4973117;28;20030;-72
2023/07/18 03:11:50;;;;;;;8.57;4.50;;;;;;;;;;4972959;28;20029;-72
2023/07/18 03:14:19;;;;;;;7.30;4.20;;;;;;;;;;4973075;28;20051;-73
2023/07/18 03:16:45;;;;;;;6.07;4.05;;;;;;;;;;4974964;28;20034;-72
2023/07/18 03:19:14;;;;;;;7.13;4.28;;;;;;;;;;4976220;28;20031;-72
2023/07/18 03:21:40;;;;;;;8.35;4.82;;;;;;;;;;4976660;28;20027;-72
2023/07/18 03:24:07;;;;;;;6.22;4.32;;;;;;;;;;4975349;28;20386;-72
2023/07/18 03:26:36;;;;;;;5.90;4.57;;;;;;;;;;4976694;28;20021;-72
2023/07/18 03:29:04;;;;;;;4.95;4.20;;;;;;;;;;4976545;28;20033;-72
2023/07/18 03:31:30;;;;;;;5.82;4.82;;;;;;;;;;4976182;28;20505;-72
2023/07/18 03:33:56;;;;;;;14.05;5.20;;;;;;;;;;4976154;28;20031;-73
2023/07/18 03:36:23;;;;;;;8.40;4.93;;;;;;;;;;4976467;28;20037;-72
2023/07/18 03:38:49;;;;;;;6.78;5.07;;;;;;;;;;4976253;28;20030;-72
2023/07/18 03:41:15;;;;;;;6.47;4.60;;;;;;;;;;4976323;28;20033;-72
2023/07/18 03:43:42;;;;;;;6.22;5.20;;;;;;;;;;4976068;28;20025;-72
2023/07/18 03:46:08;;;;;;;7.05;4.47;;;;;;;;;;4976202;28;20482;-72
2023/07/18 03:48:34;;;;;;;8.98;5.35;;;;;;;;;;4974865;28;20026;-73
2023/07/18 03:51:07;;;;;;;6.78;4.88;;;;;;;;;;4976057;28;20082;-72
2023/07/18 03:53:33;;;;;;;8.13;4.93;;;;;;;;;;4976211;28;20037;-72
2023/07/18 03:56:06;;;;;;;8.57;5.10;;;;;;;;;;4976148;28;20039;-72
2023/07/18 03:58:32;;;;;;;8.32;5.53;;;;;;;;;;4975643;28;20513;-72
2023/07/18 04:00:59;;;;;;;10.70;5.03;;;;;;;;;;4975691;28;20022;-72
2023/07/18 04:03:25;;;;;;;7.80;4.97;;;;;;;;;;4975398;28;20033;-72
2023/07/18 04:05:51;;;;;;;7.97;5.22;;;;;;;;;;4974520;28;20049;-72
2023/07/18 04:08:20;;;;;;;13.05;5.15;;;;;;;;;;4975584;28;20049;-73
2023/07/18 04:10:47;;;;;;;9.43;5.15;;;;;;;;;;4974218;28;20023;-73
2023/07/18 04:13:13;;;;;;;6.85;5.43;;;;;;;;;;4975278;28;20031;-72
2023/07/18 04:15:40;;;;;;;11.10;5.40;;;;;;;;;;4975115;28;20030;-72
2023/07/18 04:18:06;;;;;;;9.57;5.25;;;;;;;;;;4975271;28;20391;-72
2023/07/18 04:20:32;;;;;;;9.68;5.00;;;;;;;;;;4975639;28;20035;-72
2023/07/18 04:22:59;;;;;;;17.92;5.22;;;;;;;;;;4975349;28;20461;-72
2023/07/18 04:25:32;;;;;;;9.25;5.18;;;;;;;;;;4975361;28;20475;-72
2023/07/18 04:27:58;;;;;;;14.68;5.03;;;;;;;;;;4974890;28;20033;-72
2023/07/18 04:30:25;;;;;;;11.80;5.10;;;;;;;;;;4974810;28;20049;-72
2023/07/18 04:32:51;;;;;;;9.00;5.50;;;;;;;;;;4975218;28;20037;-72
2023/07/18 04:35:17;;;;;;;8.77;5.40;;;;;;;;;;4975453;28;20031;-72
2023/07/18 04:37:44;;;;;;;8.18;5.60;;;;;;;;;;4975059;28;20414;-72
2023/07/18 04:40:11;;;;;;;6.93;5.20;;;;;;;;;;4975013;28;20378;-72
2023/07/18 04:42:37;;;;;;;9.98;5.80;;;;;;;;;;4975099;28;20029;-72
2023/07/18 04:45:06;;;;;;;11.30;5.60;;;;;;;;;;4974603;28;20091;-72
2023/07/18 04:47:32;;;;;;;8.18;5.13;;;;;;;;;;4975143;28;20085;-72
2023/07/18 04:49:59;;;;;;;10.00;5.50;;;;;;;;;;4974892;28;20463;-72
2023/07/18 04:52:25;;;;;;;13.25;5.35;;;;;;;;;;4975096;28;20022;-73
2023/07/18 04:54:51;;;;;;;9.23;5.70;;;;;;;;;;4974682;28;20034;-72
2023/07/18 04:57:18;;;;;;;9.73;5.30;;;;;;;;;;4974664;28;20411;-73
2023/07/18 04:59:44;;;;;;;9.77;5.38;;;;;;;;;;4974283;28;20394;-72
2023/07/18 05:02:10;;;;;;;10.35;5.47;;;;;;;;;;4974637;28;20368;-72
2023/07/18 05:04:36;;;;;;;9.93;5.45;;;;;;;;;;4974942;28;20030;-72
2023/07/18 05:07:03;;;;;;;8.90;5.40;;;;;;;;;;4974648;28;20037;-72
2023/07/18 05:09:30;;;;;;;13.23;5.78;;;;;;;;;;4974929;28;20114;-72
2023/07/18 05:11:56;;;;;;;7.82;4.80;;;;;;;;;;4974533;28;20378;-72
2023/07/18 05:14:22;;;;;;;11.07;5.30;;;;;;;;;;4973921;28;20046;-72
2023/07/18 05:16:49;;;;;;;9.35;5.50;;;;;;;;;;4974185;28;20043;-72
2023/07/18 05:19:15;;;;;;;8.35;5.40;;;;;;;;;;4974605;28;20049;-72
2023/07/18 05:21:41;;;;;;;7.47;5.30;;;;;;;;;;4974263;28;20043;-72
2023/07/18 05:24:08;;;;;;;8.95;5.13;;;;;;;;;;4974414;28;20368;-72
2023/07/18 05:26:34;;;;;;;8.73;5.35;;;;;;;;;;4974526;28;20026;-72
2023/07/18 05:29:00;;;;;;;13.07;5.93;;;;;;;;;;4973696;28;20042;-72
2023/07/18 05:31:27;;;;;;;11.82;6.07;;;;;;;;;;4974410;28;20042;-72
2023/07/18 05:33:53;;;;;;;12.45;6.07;;;;;;;;;;4974191;28;20015;-72
2023/07/18 05:36:20;;;;;;;8.32;5.20;;;;;;;;;;4974022;28;20031;-72
2023/07/18 05:38:46;;;;;;;11.98;5.93;;;;;;;;;;4973781;28;20053;-72
2023/07/18 05:41:12;;;;;;;9.93;5.90;;;;;;;;;;4974269;28;20027;-72
2023/07/18 05:43:39;;;;;;;10.77;5.65;;;;;;;;;;4973740;28;20037;-73
2023/07/18 05:46:05;;;;;;;9.15;5.82;;;;;;;;;;4973935;28;20529;-72
2023/07/18 05:48:31;;;;;;;7.88;5.53;;;;;;;;;;4974202;28;20033;-73
2023/07/18 05:50:58;;;;;;;8.20;5.65;;;;;;;;;;4974293;28;20027;-73
2023/07/18 05:53:25;;;;;;;9.30;5.88;;;;;;;;;;4973882;28;20026;-72
2023/07/18 05:55:52;;;;;;;11.63;5.70;;;;;;;;;;4973756;28;20039;-72
2023/07/18 05:58:19;;;;;;;11.43;5.60;;;;;;;;;;4973522;28;20038;-72
2023/07/18 06:00:46;;;;;;;12.80;6.35;;;;;;;;;;4972568;28;20019;-68
2023/07/18 06:03:12;;;;;;;13.27;5.57;;;;;;;;;;4957884;28;20407;-65
2023/07/18 06:05:39;;;;;;;9.02;5.85;;;;;;;;;;4971954;28;20480;-64
2023/07/18 06:08:07;;;;;;;11.38;5.18;;;;;;;;;;4972542;28;20042;-65
2023/07/18 06:10:33;;;;;;;19.50;5.80;;;;;;;;;;4973361;28;20021;-64
2023/07/18 06:12:59;;;;;;;10.02;5.85;;;;;;;;;;4972848;28;20026;-65
2023/07/18 06:15:26;;;;;;;20.00;6.63;;;;;;;;;;4969092;28;20526;-65
2023/07/18 06:17:52;;;;;;;10.27;6.50;;;;;;;;;;4969460;28;20495;-63
2023/07/18 06:20:18;;;;;;;14.43;6.20;;;;;;;;;;4969486;28;20024;-63
2023/07/18 06:22:47;;;;;;;13.00;6.38;;;;;;;;;;4963062;28;20475;-62
2023/07/18 06:25:15;;;;;;;10.30;6.15;;;;;;;;;;4987382;28;20505;-64
2023/07/18 06:27:41;;;;;;;16.25;6.68;;;;;;;;;;4971884;28;20027;-65
2023/07/18 06:30:08;;;;;;;10.07;6.32;;;;;;;;;;4972595;28;20035;-65
2023/07/18 06:32:35;;;;;;;8.90;6.03;;;;;;;;;;4967606;28;20027;-65
2023/07/18 06:35:05;;;;;;;12.82;6.85;;;;;;;;;;4965973;28;20007;-65
2023/07/18 06:37:31;;;;;;;9.80;6.00;;;;;;;;;;4971183;28;20039;-65
2023/07/18 06:39:57;;;;;;;14.38;6.50;;;;;;;;;;4971089;28;21037;-65
2023/07/18 06:42:24;;;;;;;9.40;5.72;;;;;;;;;;4958799;28;20023;-65
2023/07/18 06:44:50;;;;;;;14.60;6.32;;;;;;;;;;4959786;28;20027;-65
2023/07/18 06:47:17;;;;;;;13.38;6.53;;;;;;;;;;4972389;28;20037;-65
2023/07/18 06:49:43;;;;;;;8.95;5.75;;;;;;;;;;4956358;28;20034;-65
2023/07/18 06:52:09;;;;;;;7.90;5.60;;;;;;;;;;4972487;28;20041;-63
2023/07/18 06:54:36;;;;;;;13.48;6.20;;;;;;;;;;4975158;28;20030;-64
2023/07/18 06:57:02;;;;;;;8.68;5.85;;;;;;;;;;4975545;28;20031;-64
2023/07/18 06:59:28;;;;;;;14.05;6.38;;;;;;;;;;4975831;28;20390;-64
2023/07/18 07:01:55;;;;;;;9.02;5.60;;;;;;;;;;4975421;28;20025;-65
2023/07/18 07:04:21;;;;;;;12.10;6.15;;;;;;;;;;4975674;28;20035;-64
2023/07/18 07:06:48;;;;;;;11.63;5.75;;;;;;;;;;4962246;28;20077;-64
2023/07/18 07:09:14;;;;;;;9.63;5.70;;;;;;;;;;4975854;28;20043;-65
2023/07/18 07:11:41;;;;;;;12.10;5.80;;;;;;;;;;4974496;28;20399;-65
2023/07/18 07:14:07;;;;;;;9.38;5.38;;;;;;;;;;4975280;28;20053;-64
2023/07/18 07:16:35;;;;;;;10.35;6.15;;;;;;;;;;4975553;28;20026;-64
2023/07/18 07:19:02;;;;;;;8.23;6.45;;;;;;;;;;4976212;28;20080;-65
2023/07/18 07:21:29;;;;;;;7.13;5.57;;;;;;;;;;4995255;28;20022;-65
2023/07/18 07:23:55;;;;;;;7.97;4.65;;;;;;;;;;4994050;28;20030;-65
2023/07/18 07:26:22;;;;;;;8.15;5.25;;;;;;;;;;4977824;28;20479;-64
2023/07/18 07:28:48;;;;;;;8.93;5.60;;;;;;;;;;4956422;28;20037;-65
2023/07/18 07:31:15;;;;;;;6.55;5.30;;;;;;;;;;4970311;28;20073;-64
2023/07/18 07:33:41;;;;;;;8.43;5.32;;;;;;;;;;4975453;28;20031;-65
2023/07/18 07:36:09;;;;;;;8.13;5.07;;;;;;;;;;4974385;28;20019;-64
2023/07/18 07:38:36;;;;;;;9.73;5.10;;;;;;;;;;4974205;28;20057;-65
2023/07/18 07:41:04;;;;;;;6.30;5.25;;;;;;;;;;4974864;28;20023;-65
2023/07/18 07:43:30;;;;;;;9.13;6.10;;;;;;;;;;4963311;28;20495;-65
2023/07/18 07:45:57;;;;;;;7.78;5.25;;;;;;;;;;4960448;28;20045;-62
2023/07/18 07:48:24;;;;;;;9.05;5.00;;;;;;;;;;4973800;28;20019;-64
2023/07/18 07:50:50;;;;;;;11.35;5.13;;;;;;;;;;4974441;28;20406;-64
2023/07/18 07:53:16;;;;;;;9.88;5.10;;;;;;;;;;4974061;28;20037;-65
2023/07/18 07:55:43;;;;;;;14.57;5.63;;;;;;;;;;4974678;28;20041;-65
2023/07/18 07:58:09;;;;;;;7.57;4.70;;;;;;;;;;4964298;28;20065;-65
2023/07/18 08:00:35;;;;;;;11.32;5.68;;;;;;;;;;4960261;28;20026;-65
2023/07/18 08:03:02;;;;;;;12.63;5.05;;;;;;;;;;4973573;28;20394;-65
2023/07/18 08:05:29;;;;;;;13.50;4.75;;;;;;;;;;4974613;28;20026;-64
2023/07/18 08:07:55;;;;;;;6.82;4.82;;;;;;;;;;4973144;28;20530;-72
2023/07/18 08:10:22;;;;;;;9.85;5.18;;;;;;;;;;4971718;28;20446;-66
2023/07/18 08:12:49;;;;;;;6.80;4.80;;;;;;;;;;4974980;28;20049;-66
2023/07/18 08:15:15;;;;;;;7.68;4.55;;;;;;;;;;4973068;28;20438;-64
2023/07/18 08:17:41;;;;;;;9.77;4.63;;;;;;;;;;4974398;28;20496;-64
2023/07/18 08:20:08;;;;;;;7.40;4.80;;;;;;;;;;4974533;28;20037;-66
2023/07/18 08:22:35;;;;;;;6.10;4.45;;;;;;;;;;4973415;28;20039;-66
2023/07/18 08:25:01;;;;;;;8.32;4.40;;;;;;;;;;4974359;28;20031;-66
2023/07/18 08:27:28;;;;;;;7.75;4.60;;;;;;;;;;4974471;28;20472;-65
2023/07/18 08:29:55;;;;;;;5.95;4.10;;;;;;;;;;4974541;28;20027;-63
2023/07/18 08:32:21;;;;;;;9.35;4.20;;;;;;;;;;4973858;28;20031;-65
2023/07/18 08:34:47;;;;;;;7.20;3.95;;;;;;;;;;4974304;28;20038;-66
2023/07/18 08:37:13;;;;;;;10.95;4.22;;;;;;;;;;4973817;28;20092;-65
2023/07/18 08:39:40;;;;;;;8.63;4.15;;;;;;;;;;4974184;28;20483;-66
2023/07/18 08:42:06;;;;;;;12.90;4.47;;;;;;;;;;4973604;28;20031;-65
2023/07/18 08:44:35;;;;;;;9.75;4.68;;;;;;;;;;4970459;28;20070;-65
2023/07/18 08:47:05;;;;;;;11.68;4.30;;;;;;;;;;4971264;28;20037;-66
2023/07/18 08:49:32;;;;;;;8.02;3.83;;;;;;;;;;4971821;28;20442;-65
2023/07/18 08:52:00;;;;;;;7.85;4.18;;;;;;;;;;4973564;28;20033;-65
2023/07/18 08:54:27;;;;;;;5.57;3.42;;;;;;;;;;4974024;28;20027;-64
2023/07/18 08:56:54;;;;;;;7.68;3.60;;;;;;;;;;4973776;28;20025;-63
2023/07/18 08:59:20;;;;;;;9.45;3.60;;;;;;;;;;4973873;28;20458;-66
2023/07/18 09:01:47;;;;;;;9.23;3.90;;;;;;;;;;4973551;28;20035;-67
2023/07/18 09:04:14;;;;;;;8.68;3.65;;;;;;;;;;4971166;28;20022;-64
2023/07/18 09:06:47;;;;;;;7.50;3.80;;;;;;;;;;4968206;28;20031;-66
2023/07/18 09:09:17;;;;;;;7.30;3.50;;;;;;;;;;4972330;28;20019;-65
2023/07/18 09:11:57;;;;;;;7.85;3.30;;;;;;;;;;4964963;28;20030;-66
2023/07/18 09:14:23;;;;;;;;;;;;;;;;;;4964093;28;20250;-66
2023/07/18 09:16:50;;;;;;;7.95;3.35;;;;;;;;;;4973033;28;19909;-66
2023/07/18 09:19:16;;;;;;;9.48;3.35;;;;;;;;;;4962823;28;20052;-65
2023/07/18 09:21:42;;;;;;;12.63;3.35;;;;;;;;;;4972205;28;20029;-63
2023/07/18 09:24:09;;;;;;;10.05;3.47;;;;;;;;;;4969695;28;20426;-66
2023/07/18 09:26:35;;;;;;;11.23;3.58;;;;;;;;;;4972303;28;20487;-67
2023/07/18 09:29:09;;;;;;;9.35;3.60;;;;;;;;;;4972592;28;20035;-66
2023/07/18 09:31:35;;;;;;;6.00;3.13;;;;;;;;;;4973221;28;20029;-65
2023/07/18 09:34:11;;;;;;;6.15;3.35;;;;;;;;;;4973495;28;20033;-66
2023/07/18 09:36:37;;;;;;;6.97;3.90;;;;;;;;;;4972662;28;20387;-66
2023/07/18 09:39:04;;;;;;;6.47;3.50;;;;;;;;;;4972998;28;20038;-67
2023/07/18 09:41:32;;;;;;;6.72;3.28;;;;;;;;;;4973105;28;20019;-66
2023/07/18 09:43:59;;;;;;;6.32;3.53;;;;;;;;;;4973231;28;20034;-67
2023/07/18 09:46:26;;;;;;;9.32;3.33;;;;;;;;;;4973040;28;20081;-72
2023/07/18 09:48:52;;;;;;;8.95;3.67;;;;;;;;;;4972877;28;20023;-68
2023/07/18 09:51:21;;;;;;;6.30;3.40;;;;;;;;;;4972153;28;20419;-65
2023/07/18 09:53:48;;;;;;;6.95;3.65;;;;;;;;;;4972988;28;20019;-65
2023/07/18 09:56:15;;;;;;;5.80;3.22;;;;;;;;;;4972802;28;20027;-68
2023/07/18 09:58:43;;;;;;;8.95;3.67;;;;;;;;;;4972871;28;20407;-66
2023/07/18 10:01:11;;;;;;;6.40;3.55;;;;;;;;;;4972680;28;20454;-68
2023/07/18 10:03:39;;;;;;;10.38;3.60;;;;;;;;;;4971357;28;20112;-68
2023/07/18 10:06:10;;;;;;;10.93;3.75;;;;;;;;;;4972462;28;20033;-68
2023/07/18 10:08:41;;;;;;;6.50;3.63;;;;;;;;;;4972354;28;20030;-67
2023/07/18 10:11:08;;;;;;;11.95;3.63;;;;;;;;;;4970162;28;20076;-68
2023/07/18 10:13:53;;;;;;;11.68;3.65;;;;;;;;;;4987677;28;20047;-68
2023/07/18 10:16:19;;;;;;;8.77;3.78;;;;;;;;;;4972826;28;20027;-68
2023/07/18 10:18:49;;;;;;;10.73;3.97;;;;;;;;;;4972486;28;20051;-68
2023/07/18 10:21:29;;;;;;;6.90;3.55;;;;;;;;;;4972794;28;20057;-68
2023/07/18 10:23:55;;;;;;;9.57;3.85;;;;;;;;;;4972877;28;20764;-68
2023/07/18 10:26:31;;;;;;;7.85;3.65;;;;;;;;;;4976523;28;20025;-68
2023/07/18 10:29:02;;;;;;;8.82;3.70;;;;;;;;;;4977249;28;20035;-68
2023/07/18 10:31:30;;;;;;;12.30;3.80;;;;;;;;;;4976654;28;20038;-68
2023/07/18 10:34:13;;;;;;;7.63;3.72;;;;;;;;;;4983055;28;20049;-68
2023/07/18 10:36:41;;;;;;;10.45;3.80;;;;;;;;;;4995682;28;20022;-68
2023/07/18 10:39:12;;;;;;;6.30;3.60;;;;;;;;;;4995786;28;20040;-66
2023/07/18 10:41:45;;;;;;;9.77;4.15;;;;;;;;;;4990495;28;20534;-68
2023/07/18 10:44:14;;;;;;;15.85;8.85;;;;;;;;;;4976483;28;20394;-68
2023/07/18 10:46:41;;;;;;;9.68;5.72;;;;;;;;;;4976378;28;20031;-68
2023/07/18 10:49:08;;;;;;;17.77;9.27;;;;;;;;;;4976377;28;20035;-68
2023/07/18 10:51:34;;;;;;;14.00;4.10;;;;;;;;;;4976616;28;20026;-68
2023/07/18 10:54:02;;;;;;;11.63;4.55;;;;;;;;;;4976732;28;20105;-68
2023/07/18 10:56:28;;;;;;;9.90;4.50;;;;;;;;;;4976242;28;20642;-68
2023/07/18 10:58:58;;;;;;;11.13;4.03;;;;;;;;;;4976468;28;20027;-68
2023/07/18 11:01:25;;;;;;;13.05;3.78;;;;;;;;;;4976421;28;20387;-68
2023/07/18 11:03:52;;;;;;;12.32;3.70;;;;;;;;;;4975811;28;20041;-68
2023/07/18 11:06:21;;;;;;;8.00;3.60;;;;;;;;;;4976271;28;20510;-68
2023/07/18 11:08:47;;;;;;;10.80;4.25;;;;;;;;;;4976148;28;20369;-68
2023/07/18 11:11:14;;;;;;;10.77;3.83;;;;;;;;;;4976170;28;20030;-68
2023/07/18 11:13:44;;;;;;;8.77;3.60;;;;;;;;;;4976041;28;20053;-68
2023/07/18 11:16:12;;;;;;;10.95;4.45;;;;;;;;;;4975567;28;20055;-67
2023/07/18 11:18:41;;;;;;;13.00;4.45;;;;;;;;;;4976198;28;20057;-67
2023/07/18 11:21:07;;;;;;;10.20;4.55;;;;;;;;;;4975904;28;20026;-67
2023/07/18 11:23:35;;;;;;;9.82;4.25;;;;;;;;;;4976104;28;20090;-67
2023/07/18 11:26:12;;;;;;;13.27;5.05;;;;;;;;;;4976006;28;20027;-68
2023/07/18 11:28:39;;;;;;;8.43;4.13;;;;;;;;;;4975948;28;20517;-68
2023/07/18 11:31:06;;;;;;;12.43;3.85;;;;;;;;;;4975725;28;20031;-68
2023/07/18 11:33:33;;;;;;;16.02;4.47;;;;;;;;;;4976016;28;20022;-68
2023/07/18 11:35:59;;;;;;;10.10;4.35;;;;;;;;;;4974186;28;20031;-68
2023/07/18 11:38:29;;;;;;;14.45;9.07;;;;;;;;;;4971693;28;20509;-68
2023/07/18 11:40:57;;;;;;;10.20;3.95;;;;;;;;;;4974689;28;20022;-66
2023/07/18 11:43:29;;;;;;;7.18;4.10;;;;;;;;;;4973755;28;20065;-67
2023/07/18 11:45:59;;;;;;;12.15;3.80;;;;;;;;;;4974992;28;20025;-68
2023/07/18 11:48:27;;;;;;;11.07;3.55;;;;;;;;;;4972444;28;20033;-67
2023/07/18 11:50:53;;;;;;;11.35;3.47;;;;;;;;;;4974897;28;20022;-68
2023/07/18 11:53:26;;;;;;;7.57;3.95;;;;;;;;;;4975034;28;20038;-68
2023/07/18 11:55:54;;;;;;;7.53;3.50;;;;;;;;;;4974444;28;20027;-67
2023/07/18 11:58:21;;;;;;;9.40;3.38;;;;;;;;;;4973020;28;20039;-68
2023/07/18 12:00:47;;;;;;;9.05;3.75;;;;;;;;;;4955220;29;20019;-68
2023/07/18 12:03:13;;;;;;;9.35;3.92;;;;;;;;;;4965468;28;20053;-67
2023/07/18 12:05:40;;;;;;;10.57;4.03;;;;;;;;;;4973216;28;20029;-68
2023/07/18 12:08:06;;;;;;;12.02;4.00;;;;;;;;;;4973706;28;20450;-68
2023/07/18 12:10:33;;;;;;;17.98;4.07;;;;;;;;;;4974647;28;20053;-68
2023/07/18 12:12:59;;;;;;;12.40;4.13;;;;;;;;;;4972650;28;20023;-68
2023/07/18 12:15:25;;;;;;;11.85;3.90;;;;;;;;;;4973911;28;20108;-68
2023/07/18 12:17:52;;;;;;;8.02;3.60;;;;;;;;;;4974306;28;20038;-68
2023/07/18 12:20:18;;;;;;;12.15;3.85;;;;;;;;;;4974924;28;20015;-68
2023/07/18 12:22:44;;;;;;;8.52;3.85;;;;;;;;;;4973428;28;20030;-68
2023/07/18 12:25:10;;;;;;;12.05;4.07;;;;;;;;;;4973795;28;20487;-68
2023/07/18 12:27:37;;;;;;;14.63;3.97;;;;;;;;;;4974695;28;20031;-68
2023/07/18 12:30:04;;;;;;;9.20;3.83;;;;;;;;;;4988102;28;20031;-68
2023/07/18 12:32:31;;;;;;;8.63;3.95;;;;;;;;;;4972713;28;20035;-68
2023/07/18 12:34:57;;;;;;;10.35;4.03;;;;;;;;;;4974063;28;20069;-68
2023/07/18 12:37:23;;;;;;;12.43;4.00;;;;;;;;;;4974724;28;20041;-68
2023/07/18 12:39:50;;;;;;;10.98;3.70;;;;;;;;;;4973320;28;20026;-68
2023/07/18 12:42:16;;;;;;;7.38;3.50;;;;;;;;;;4973733;28;20029;-68
2023/07/18 12:44:46;;;;;;;10.52;4.50;;;;;;;;;;4986742;28;20033;-68
2023/07/18 12:47:12;;;;;;;;;;;;;;;;;;4972736;28;20372;-68
2023/07/18 12:49:39;;;;;;;10.18;3.70;;;;;;;;;;4956702;28;19910;-68
2023/07/18 12:52:05;;;;;;;9.02;3.80;;;;;;;;;;4953782;29;20027;-68
2023/07/18 12:54:35;;;;;;;8.63;3.65;;;;;;;;;;4953752;29;20391;-68
2023/07/18 12:57:02;;;;;;;13.25;3.83;;;;;;;;;;4965549;28;20041;-68
2023/07/18 12:59:28;;;;;;;13.55;4.40;;;;;;;;;;4972727;28;20045;-68
2023/07/18 13:01:55;;;;;;;9.73;3.72;;;;;;;;;;4987715;28;20474;-68
2023/07/18 13:04:22;;;;;;;11.00;4.22;;;;;;;;;;4973381;28;20019;-68
2023/07/18 13:06:48;;;;;;;8.90;3.95;;;;;;;;;;4972353;28;20026;-68
2023/07/18 13:09:15;;;;;;;6.82;3.85;;;;;;;;;;4970552;28;20027;-67
2023/07/18 13:11:41;;;;;;;9.18;4.35;;;;;;;;;;4971913;28;20035;-68
2023/07/18 13:14:07;;;;;;;13.35;3.90;;;;;;;;;;4971870;28;20043;-67
2023/07/18 13:16:34;;;;;;;10.60;3.88;;;;;;;;;;4973446;28;20031;-67
2023/07/18 13:19:02;;;;;;;14.48;4.40;;;;;;;;;;4972535;28;20043;-68
2023/07/18 13:21:28;;;;;;;14.35;4.03;;;;;;;;;;4973227;28;20406;-68
2023/07/18 13:23:54;;;;;;;9.90;3.22;;;;;;;;;;4973853;28;20038;-68
2023/07/18 13:26:21;;;;;;;16.08;4.07;;;;;;;;;;4972782;28;20023;-68
2023/07/18 13:28:48;;;;;;;10.73;3.97;;;;;;;;;;4970740;28;20062;-68
2023/07/18 13:31:14;;;;;;;12.60;3.83;;;;;;;;;;4972328;28;20134;-68
2023/07/18 13:33:42;;;;;;;7.68;3.45;;;;;;;;;;4973091;28;20030;-68
2023/07/18 13:36:09;;;;;;;11.20;3.80;;;;;;;;;;4973711;28;20026;-68
2023/07/18 13:38:35;;;;;;;10.35;3.65;;;;;;;;;;4973056;28;20034;-68
2023/07/18 13:41:07;;;;;;;10.65;3.58;;;;;;;;;;4969805;28;20022;-67
2023/07/18 13:43:37;;;;;;;11.13;3.45;;;;;;;;;;4970767;28;20026;-67
2023/07/18 13:46:03;;;;;;;;;;;;;;;;;;4973176;28;20030;-68
2023/07/18 13:48:30;;;;;;;17.10;3.83;;;;;;;;;;4971991;28;19910;-66
2023/07/18 13:50:57;;;;;;;8.07;3.25;;;;;;;;;;4972574;28;20080;-67
2023/07/18 13:53:23;;;;;;;8.98;4.22;;;;;;;;;;4973139;28;20484;-67
2023/07/18 13:55:50;;;;;;;10.60;3.33;;;;;;;;;;4972492;28;20027;-68
2023/07/18 13:58:16;;;;;;;12.32;3.58;;;;;;;;;;4972781;28;20077;-68
2023/07/18 14:00:43;;;;;;;13.10;3.78;;;;;;;;;;4973061;28;20015;-67
2023/07/18 14:03:10;;;;;;;10.05;3.58;;;;;;;;;;4971188;28;20022;-68
2023/07/18 14:05:36;;;;;;;11.55;3.45;;;;;;;;;;4971934;28;20039;-68
2023/07/18 14:08:03;;;;;;;7.80;3.33;;;;;;;;;;4972869;28;20034;-68
2023/07/18 14:10:29;;;;;;;20.98;3.85;;;;;;;;;;4972319;28;20027;-68
2023/07/18 14:12:56;;;;;;;14.70;3.80;;;;;;;;;;4972764;28;20041;-68
2023/07/18 14:15:22;;;;;;;14.63;4.13;;;;;;;;;;4971477;28;20064;-68
2023/07/18 14:17:49;;;;;;;9.73;3.50;;;;;;;;;;4971936;28;20826;-68
2023/07/18 14:20:15;;;;;;;17.45;3.78;;;;;;;;;;4970920;28;20033;-68
2023/07/18 14:22:42;;;;;;;12.15;4.10;;;;;;;;;;4971432;28;20616;-68
2023/07/18 14:25:08;;;;;;;9.27;3.67;;;;;;;;;;4972121;28;20405;-68
2023/07/18 14:27:35;;;;;;;10.25;3.35;;;;;;;;;;4953495;29;20085;-68
2023/07/18 14:30:01;;;;;;;13.45;4.40;;;;;;;;;;4959848;28;20041;-68
2023/07/18 14:32:27;;;;;;;11.05;3.63;;;;;;;;;;4972438;28;20501;-68
2023/07/18 14:34:54;;;;;;;13.85;3.83;;;;;;;;;;4972599;28;20038;-68
2023/07/18 14:37:20;;;;;;;10.10;4.00;;;;;;;;;;4972328;28;20022;-68